createdAt,value
2023-05-19T00:00:37.560Z,96.30
2023-05-19T00:03:05.352Z,96.40
2023-05-19T00:05:33.624Z,96.40
2023-05-19T00:08:01.844Z,96.40
2023-05-19T00:10:31.821Z,96.80
2023-05-19T00:12:59.922Z,96.70
2023-05-19T00:15:52.637Z,95.90
2023-05-19T00:18:20.643Z,95.70
2023-05-19T00:20:48.177Z,95.60
2023-05-19T00:23:15.827Z,95.70
2023-05-19T00:25:43.378Z,95.90
2023-05-19T00:28:10.831Z,96.10
2023-05-19T00:30:38.375Z,96.40
2023-05-19T00:33:05.937Z,96.30
2023-05-19T00:35:33.519Z,96.50
2023-05-19T00:38:00.995Z,96.50
2023-05-19T00:40:31.506Z,96.40
2023-05-19T00:42:59.142Z,96.60
2023-05-19T00:45:26.795Z,97.20
2023-05-19T00:47:54.326Z,96.80
2023-05-19T00:50:21.899Z,96.80
2023-05-19T00:52:49.615Z,96.50
2023-05-19T00:55:17.398Z,96.30
2023-05-19T00:57:46.043Z,96.10
2023-05-19T01:00:14.167Z,96.40
2023-05-19T01:02:42.570Z,96.50
2023-05-19T01:05:10.608Z,96.40
2023-05-19T01:07:38.460Z,96.50
2023-05-19T01:10:06.729Z,96.40
2023-05-19T01:12:35.463Z,96.40
2023-05-19T01:15:06.781Z,96.20
2023-05-19T01:17:47.186Z,96.30
2023-05-19T01:20:27.122Z,96.30
2023-05-19T01:23:21.597Z,96.30
2023-05-19T01:26:07.898Z,96.10
2023-05-19T01:28:53.580Z,96.20
2023-05-19T01:31:24.778Z,96.30
2023-05-19T01:33:53.826Z,95.80
2023-05-19T01:36:23.485Z,95.60
2023-05-19T01:38:53.419Z,95.80
2023-05-19T01:41:22.536Z,95.40
2023-05-19T01:43:54.235Z,95.50
2023-05-19T01:46:23.673Z,95.30
2023-05-19T01:48:52.476Z,95.20
2023-05-19T01:51:20.549Z,94.80
2023-05-19T01:53:48.017Z,95.00
2023-05-19T01:56:24.551Z,95.10
2023-05-19T01:59:00.593Z,94.90
2023-05-19T02:01:28.185Z,94.70
2023-05-19T02:04:21.573Z,94.80
2023-05-19T02:07:09.800Z,94.70
2023-05-19T02:09:59.321Z,94.50
2023-05-19T02:12:32.687Z,94.60
2023-05-19T02:15:12.005Z,94.60
2023-05-19T02:17:43.166Z,94.50
2023-05-19T02:20:11.864Z,94.40
2023-05-19T02:22:39.913Z,94.50
2023-05-19T02:25:08.689Z,95.10
2023-05-19T02:27:38.713Z,94.80
2023-05-19T02:30:08.207Z,94.90
2023-05-19T02:32:37.705Z,95.10
2023-05-19T02:35:05.863Z,95.10
2023-05-19T02:37:33.415Z,95.20
2023-05-19T02:40:00.824Z,95.70
2023-05-19T02:42:28.327Z,95.60
2023-05-19T02:44:56.054Z,95.50
2023-05-19T02:47:23.641Z,95.60
2023-05-19T02:49:51.156Z,95.70
2023-05-19T02:52:18.667Z,95.90
2023-05-19T02:54:46.462Z,95.90
2023-05-19T02:57:14.005Z,96.30
2023-05-19T02:59:42.880Z,96.10
2023-05-19T03:02:10.460Z,96.40
2023-05-19T03:04:41.788Z,96.40
2023-05-19T03:07:10.429Z,96.40
2023-05-19T03:09:38.194Z,96.50
2023-05-19T03:12:07.678Z,96.70
2023-05-19T03:14:37.762Z,96.90
2023-05-19T03:17:07.858Z,97.10
2023-05-19T03:19:35.838Z,97.10
2023-05-19T03:22:03.857Z,97.30
2023-05-19T03:24:31.883Z,97.40
2023-05-19T03:26:59.462Z,97.60
2023-05-19T03:29:26.992Z,97.60
2023-05-19T03:31:54.864Z,98.30
2023-05-19T03:34:22.594Z,97.70
2023-05-19T03:36:50.922Z,97.90
2023-05-19T03:39:18.413Z,98.10
2023-05-19T03:41:48.648Z,97.90
2023-05-19T03:44:16.292Z,98.00
2023-05-19T03:46:44.397Z,98.20
2023-05-19T03:49:11.937Z,98.30
2023-05-19T03:51:59.586Z,98.20
2023-05-19T03:54:33.948Z,98.40
2023-05-19T03:57:02.211Z,98.60
2023-05-19T03:59:31.461Z,98.70
2023-05-19T04:01:59.016Z,98.30
2023-05-19T04:04:28.467Z,98.30
2023-05-19T04:06:56.501Z,98.50
2023-05-19T04:09:27.059Z,98.40
2023-05-19T04:11:55.846Z,98.50
2023-05-19T04:14:24.981Z,98.70
2023-05-19T04:16:53.706Z,98.70
2023-05-19T04:19:21.237Z,98.80
2023-05-19T04:21:48.705Z,98.80
2023-05-19T04:24:16.252Z,98.80
2023-05-19T04:26:46.222Z,99.10
2023-05-19T04:29:18.321Z,99.00
2023-05-19T04:31:46.244Z,99.10
2023-05-19T04:34:13.921Z,98.90
2023-05-19T04:36:41.617Z,98.90
2023-05-19T04:39:12.325Z,98.80
2023-05-19T04:41:44.715Z,98.80
2023-05-19T04:44:13.613Z,98.80
2023-05-19T04:46:42.712Z,98.70
2023-05-19T04:49:12.490Z,98.70
2023-05-19T04:51:41.596Z,98.50
2023-05-19T04:54:10.285Z,98.60
2023-05-19T04:56:37.992Z,98.50
2023-05-19T04:59:06.940Z,98.60
2023-05-19T05:01:34.751Z,98.50
2023-05-19T05:04:03.032Z,98.60
2023-05-19T05:06:31.776Z,98.40
2023-05-19T05:09:04.343Z,98.50
2023-05-19T05:11:32.787Z,98.30
2023-05-19T05:14:01.617Z,98.30
2023-05-19T05:16:30.744Z,98.10
2023-05-19T05:19:00.094Z,98.10
2023-05-19T05:21:29.324Z,97.90
2023-05-19T05:23:57.059Z,97.90
2023-05-19T05:26:30.695Z,98.10
2023-05-19T05:28:58.212Z,97.70
2023-05-19T05:31:25.972Z,97.90
2023-05-19T05:33:53.869Z,96.70
2023-05-19T05:36:24.855Z,96.80
2023-05-19T05:38:52.400Z,96.40
2023-05-19T05:41:19.982Z,96.10
2023-05-19T05:43:49.136Z,96.10
2023-05-19T05:46:17.543Z,96.30
2023-05-19T05:48:45.529Z,96.20
2023-05-19T05:51:13.264Z,96.30
2023-05-19T05:53:49.631Z,96.30
2023-05-19T05:56:18.522Z,96.20
2023-05-19T05:58:50.841Z,96.40
2023-05-19T06:01:18.356Z,96.00
2023-05-19T06:03:46.022Z,96.60
2023-05-19T06:06:18.494Z,96.30
2023-05-19T06:08:46.079Z,96.30
2023-05-19T06:11:13.565Z,96.20
2023-05-19T06:13:42.064Z,96.40
2023-05-19T06:16:14.257Z,96.10
2023-05-19T06:18:45.808Z,96.30
2023-05-19T06:21:13.777Z,96.40
2023-05-19T06:23:42.636Z,96.30
2023-05-19T06:26:11.866Z,96.60
2023-05-19T06:28:39.418Z,96.40
2023-05-19T06:31:06.965Z,96.50
2023-05-19T06:33:48.109Z,96.00
2023-05-19T06:36:16.805Z,95.90
2023-05-19T06:38:45.803Z,95.80
2023-05-19T06:41:13.382Z,96.20
2023-05-19T06:43:42.761Z,95.80
2023-05-19T06:46:14.632Z,96.00
2023-05-19T06:48:44.311Z,95.70
2023-05-19T06:51:12.383Z,95.30
2023-05-19T06:53:41.257Z,94.50
2023-05-19T06:56:10.151Z,94.70
2023-05-19T06:58:39.511Z,94.60
2023-05-19T07:01:07.198Z,94.80
2023-05-19T07:03:41.058Z,94.70
2023-05-19T07:06:10.105Z,94.80
2023-05-19T07:08:38.243Z,94.20
2023-05-19T07:11:07.567Z,94.40
2023-05-19T07:13:35.256Z,94.30
2023-05-19T07:16:02.790Z,94.30
2023-05-19T07:18:31.976Z,94.30
2023-05-19T07:20:59.936Z,94.50
2023-05-19T07:23:27.650Z,94.70
2023-05-19T07:25:58.140Z,94.50
2023-05-19T07:28:25.681Z,94.30
2023-05-19T07:30:53.321Z,93.80
2023-05-19T07:33:20.893Z,93.80
2023-05-19T07:35:48.700Z,94.40
2023-05-19T07:38:16.244Z,94.10
2023-05-19T07:40:43.770Z,94.40
2023-05-19T07:43:11.561Z,94.80
2023-05-19T07:45:39.283Z,93.70
2023-05-19T07:48:07.915Z,94.50
2023-05-19T07:50:35.874Z,94.10
2023-05-19T07:53:03.276Z,94.20
2023-05-19T07:55:30.932Z,94.10
2023-05-19T07:57:58.391Z,93.90
2023-05-19T08:00:26.248Z,93.60
2023-05-19T08:02:53.733Z,93.90
2023-05-19T08:05:21.516Z,94.30
2023-05-19T08:07:49.189Z,94.00
2023-05-19T08:10:16.792Z,93.50
2023-05-19T08:12:44.419Z,93.50
2023-05-19T08:15:12.048Z,93.10
2023-05-19T08:17:39.640Z,93.30
2023-05-19T08:20:09.071Z,93.30
2023-05-19T08:22:37.020Z,93.50
2023-05-19T08:25:05.640Z,93.90
2023-05-19T08:27:33.463Z,94.10
2023-05-19T08:30:01.139Z,93.90
2023-05-19T08:32:28.612Z,94.10
2023-05-19T08:34:56.137Z,94.00
2023-05-19T08:37:23.687Z,93.50
2023-05-19T08:39:51.103Z,93.70
2023-05-19T08:42:18.593Z,93.40
2023-05-19T08:44:46.420Z,93.10
2023-05-19T08:47:15.345Z,93.00
2023-05-19T08:49:51.108Z,93.00
2023-05-19T08:52:52.520Z,92.60
2023-05-19T08:55:59.220Z,92.90
2023-05-19T08:58:28.812Z,92.70
2023-05-19T09:00:57.871Z,93.10
2023-05-19T09:03:26.674Z,93.00
2023-05-19T09:05:54.393Z,93.00
2023-05-19T09:08:22.726Z,93.00
2023-05-19T09:10:50.562Z,92.90
2023-05-19T09:13:18.206Z,92.70
2023-05-19T09:15:46.180Z,93.30
2023-05-19T09:18:15.136Z,92.90
2023-05-19T09:20:44.247Z,92.80
2023-05-19T09:23:16.396Z,92.90
2023-05-19T09:25:51.643Z,93.00
2023-05-19T09:28:26.157Z,92.60
2023-05-19T09:31:06.750Z,93.00
2023-05-19T09:33:36.393Z,93.50
2023-05-19T09:36:06.216Z,92.60
2023-05-19T09:38:34.780Z,93.00
2023-05-19T09:41:02.611Z,93.10
2023-05-19T09:43:31.801Z,93.00
2023-05-19T09:46:08.756Z,93.20
2023-05-19T09:48:36.988Z,93.40
2023-05-19T09:51:07.594Z,93.10
2023-05-19T09:53:35.396Z,93.60
2023-05-19T09:56:04.151Z,93.40
2023-05-19T09:58:35.461Z,92.90
2023-05-19T10:01:04.775Z,93.50
2023-05-19T10:03:33.571Z,92.90
2023-05-19T10:06:09.388Z,93.70
2023-05-19T10:08:37.778Z,92.50
2023-05-19T10:11:06.204Z,93.00
2023-05-19T10:13:35.953Z,92.80
2023-05-19T10:16:03.871Z,92.50
2023-05-19T10:18:33.511Z,92.50
2023-05-19T10:21:02.478Z,92.70
2023-05-19T10:23:30.013Z,92.10
2023-05-19T10:26:00.819Z,91.90
2023-05-19T10:28:36.943Z,91.60
2023-05-19T10:31:08.922Z,91.80
2023-05-19T10:34:05.277Z,93.00
2023-05-19T10:36:42.417Z,92.20
2023-05-19T10:39:35.716Z,93.00
2023-05-19T10:42:17.032Z,93.30
2023-05-19T10:44:44.543Z,93.20
2023-05-19T10:47:12.403Z,94.30
2023-05-19T10:49:40.441Z,95.20
2023-05-19T10:52:26.156Z,94.90
2023-05-19T10:54:54.905Z,94.00
2023-05-19T10:57:28.126Z,95.00
2023-05-19T10:59:57.522Z,94.90
2023-05-19T11:02:42.345Z,95.60
2023-05-19T11:05:14.456Z,96.50
2023-05-19T11:07:44.599Z,95.80
2023-05-19T11:10:12.518Z,96.20
2023-05-19T11:12:43.025Z,97.60
2023-05-19T11:15:13.487Z,99.00
2023-05-19T11:17:42.586Z,98.20
2023-05-19T11:20:28.187Z,97.00
2023-05-19T11:23:08.908Z,97.80
2023-05-19T11:25:47.079Z,96.50
2023-05-19T11:28:20.119Z,96.50
2023-05-19T11:30:52.359Z,96.50
2023-05-19T11:33:21.618Z,95.80
2023-05-19T11:35:51.220Z,95.90
2023-05-19T11:38:19.591Z,95.40
2023-05-19T11:40:49.697Z,95.50
2023-05-19T11:43:17.305Z,96.30
2023-05-19T11:45:45.769Z,96.90
2023-05-19T11:48:14.011Z,97.20
2023-05-19T11:50:42.307Z,97.70
2023-05-19T11:53:13.417Z,97.20
2023-05-19T11:55:47.938Z,97.20
2023-05-19T12:06:58.186Z,97.10
2023-05-19T12:09:28.167Z,96.50
2023-05-19T12:11:55.846Z,96.40
2023-05-19T12:14:23.619Z,97.10
2023-05-19T12:16:51.110Z,96.70
2023-05-19T12:19:18.706Z,96.20
2023-05-19T12:21:46.330Z,96.20
2023-05-19T12:24:13.907Z,96.20
2023-05-19T12:26:41.378Z,96.90
2023-05-19T12:29:08.901Z,96.00
2023-05-19T12:31:36.596Z,96.00
2023-05-19T12:34:04.540Z,95.80
2023-05-19T12:36:32.796Z,95.70
2023-05-19T12:39:00.809Z,95.40
2023-05-19T12:41:29.551Z,95.60
2023-05-19T12:43:56.946Z,95.90
2023-05-19T12:46:24.635Z,96.70
2023-05-19T12:48:52.285Z,96.20
2023-05-19T12:51:20.469Z,96.10
2023-05-19T12:53:50.490Z,97.10
2023-05-19T12:56:17.992Z,97.40
2023-05-19T12:58:46.076Z,97.20
2023-05-19T13:01:18.665Z,98.20
2023-05-19T13:03:46.385Z,99.10
2023-05-19T13:06:14.129Z,99.90
2023-05-19T13:08:41.883Z,99.90
2023-05-19T13:11:09.282Z,99.90
2023-05-19T13:13:37.460Z,99.90
2023-05-19T13:16:05.228Z,99.90
2023-05-19T13:18:32.758Z,99.90
2023-05-19T13:21:00.228Z,99.90
2023-05-19T13:23:27.993Z,99.90
2023-05-19T13:25:55.490Z,99.90
2023-05-19T13:28:23.431Z,99.90
2023-05-19T13:30:52.136Z,99.90
2023-05-19T13:33:19.823Z,99.90
2023-05-19T13:35:47.303Z,99.90
2023-05-19T13:38:14.713Z,99.90
2023-05-19T13:40:42.175Z,99.90
2023-05-19T13:43:09.892Z,99.90
2023-05-19T13:45:38.052Z,99.90
2023-05-19T13:48:07.460Z,99.90
2023-05-19T13:50:35.328Z,99.90
2023-05-19T13:53:03.734Z,99.90
2023-05-19T13:55:31.693Z,99.90
2023-05-19T13:57:59.188Z,99.90
2023-05-19T14:00:26.605Z,99.90
2023-05-19T14:02:54.127Z,99.90
2023-05-19T14:05:21.732Z,99.90
2023-05-19T14:07:49.289Z,99.90
2023-05-19T14:10:16.747Z,99.90
2023-05-19T14:13:04.905Z,99.90
2023-05-19T14:15:34.596Z,99.90
2023-05-19T14:18:03.124Z,99.90
2023-05-19T14:20:32.170Z,99.90
2023-05-19T14:22:59.825Z,99.90
2023-05-19T14:25:27.286Z,99.90
2023-05-19T14:27:54.708Z,99.90
2023-05-19T14:30:22.289Z,99.90
2023-05-19T14:32:49.750Z,99.90
2023-05-19T14:35:17.247Z,99.90
2023-05-19T14:37:44.752Z,99.90
2023-05-19T14:40:12.683Z,99.90
2023-05-19T14:42:40.105Z,99.90
2023-05-19T14:45:08.131Z,99.90
2023-05-19T14:47:35.593Z,99.90
2023-05-19T14:50:03.147Z,99.90
2023-05-19T14:52:30.753Z,99.90
2023-05-19T14:54:58.191Z,99.90
2023-05-19T14:57:25.696Z,99.90
2023-05-19T14:59:53.196Z,99.90
2023-05-19T15:02:20.686Z,99.90
2023-05-19T15:04:48.285Z,99.90
2023-05-19T15:07:16.431Z,99.90
2023-05-19T15:09:43.859Z,99.90
2023-05-19T15:12:11.278Z,99.90
2023-05-19T15:14:38.802Z,99.90
2023-05-19T15:17:06.315Z,99.90
2023-05-19T15:19:33.997Z,99.90
2023-05-19T15:22:01.589Z,99.90
2023-05-19T15:24:29.056Z,99.90
2023-05-19T15:26:56.534Z,99.90
2023-05-19T15:29:24.029Z,99.90
2023-05-19T15:31:52.136Z,99.90
2023-05-19T15:34:20.662Z,99.90
2023-05-19T15:36:48.198Z,99.90
2023-05-19T15:39:15.796Z,99.90
2023-05-19T15:41:43.324Z,99.90
2023-05-19T15:44:11.027Z,99.90
2023-05-19T15:46:38.598Z,99.90
2023-05-19T15:49:06.135Z,99.90
2023-05-19T15:51:33.639Z,99.90
2023-05-19T15:54:01.111Z,99.90
2023-05-19T15:56:28.684Z,99.90
2023-05-19T15:58:56.234Z,99.90
2023-05-19T16:01:23.852Z,99.90
2023-05-19T16:03:51.585Z,99.90
2023-05-19T16:06:19.164Z,99.90
2023-05-19T16:08:46.616Z,99.90
2023-05-19T16:11:14.590Z,99.90
2023-05-19T16:13:42.025Z,99.90
2023-05-19T16:16:09.586Z,99.90
2023-05-19T16:18:37.125Z,99.90
2023-05-19T16:21:04.848Z,99.90
2023-05-19T16:23:32.320Z,99.90
2023-05-19T16:25:59.926Z,99.90
2023-05-19T16:28:28.052Z,99.90
2023-05-19T16:31:00.221Z,99.90
2023-05-19T16:33:28.292Z,99.90
2023-05-19T16:35:57.618Z,99.90
2023-05-19T16:38:26.712Z,99.90
2023-05-19T16:40:54.166Z,99.90
2023-05-19T16:43:21.639Z,99.90
2023-05-19T16:45:49.213Z,99.90
2023-05-19T16:48:16.852Z,99.90
2023-05-19T16:50:44.344Z,99.90
2023-05-19T16:53:11.739Z,99.90
2023-05-19T16:55:39.177Z,99.90
2023-05-19T16:58:06.565Z,99.90
2023-05-19T17:00:34.264Z,99.90
2023-05-19T17:03:01.983Z,99.90
2023-05-19T17:05:29.505Z,99.90
2023-05-19T17:07:56.954Z,99.90
2023-05-19T17:10:24.345Z,99.90
2023-05-19T17:12:51.873Z,99.90
2023-05-19T17:15:19.313Z,99.90
2023-05-19T17:17:46.757Z,99.90
2023-05-19T17:20:14.353Z,99.90
2023-05-19T17:22:42.091Z,99.90
2023-05-19T17:25:10.133Z,99.90
2023-05-19T17:27:37.638Z,99.90
2023-05-19T17:30:05.601Z,99.90
2023-05-19T17:32:38.405Z,99.90
2023-05-19T17:35:06.884Z,99.90
2023-05-19T17:37:34.394Z,99.90
2023-05-19T17:40:01.912Z,99.90
2023-05-19T17:42:29.360Z,99.90
2023-05-19T17:44:56.811Z,99.90
2023-05-19T17:47:24.470Z,99.90
2023-05-19T17:49:53.120Z,99.90
2023-05-19T17:52:21.622Z,99.90
2023-05-19T17:54:50.513Z,99.90
2023-05-19T17:57:18.600Z,99.90
2023-05-19T17:59:46.560Z,99.90
2023-05-19T18:02:15.716Z,99.90
2023-05-19T18:04:43.796Z,99.90
2023-05-19T18:07:12.029Z,99.90
2023-05-19T18:09:43.640Z,99.90
2023-05-19T18:12:11.114Z,99.90
2023-05-19T18:14:38.796Z,99.90
2023-05-19T18:17:06.475Z,99.90
2023-05-19T18:19:33.893Z,99.90
2023-05-19T18:22:01.327Z,99.90
2023-05-19T18:24:28.800Z,99.90
2023-05-19T18:26:56.228Z,99.90
2023-05-19T18:29:23.675Z,99.90
2023-05-19T18:31:51.175Z,99.90
2023-05-19T18:34:18.729Z,99.90
2023-05-19T18:36:46.165Z,99.90
2023-05-19T18:39:13.590Z,99.90
2023-05-19T18:41:42.724Z,99.90
2023-05-19T18:44:11.164Z,99.90
2023-05-19T18:46:38.642Z,99.90
2023-05-19T18:49:06.194Z,99.90
2023-05-19T18:51:35.911Z,99.90
2023-05-19T18:54:03.431Z,99.90
2023-05-19T18:56:33.302Z,99.90
2023-05-19T18:59:00.745Z,99.90
2023-05-19T19:01:28.415Z,99.90
2023-05-19T19:03:56.325Z,99.90
2023-05-19T19:06:23.999Z,99.90
2023-05-19T19:08:51.711Z,99.90
2023-05-19T19:11:19.396Z,99.90
2023-05-19T19:13:51.869Z,99.90
2023-05-19T19:16:20.132Z,99.90
2023-05-19T19:18:48.114Z,99.90
2023-05-19T19:21:16.379Z,99.90
2023-05-19T19:23:44.092Z,99.90
2023-05-19T19:26:11.844Z,99.90
2023-05-19T19:28:39.331Z,99.90
2023-05-19T19:31:07.987Z,99.90
2023-05-19T19:33:35.821Z,99.90
2023-05-19T19:36:03.424Z,99.90
2023-05-19T19:38:31.087Z,99.90
2023-05-19T19:40:58.615Z,99.90
2023-05-19T19:43:26.083Z,99.90
2023-05-19T19:46:01.221Z,99.90
2023-05-19T19:48:29.158Z,99.90
2023-05-19T19:50:57.503Z,99.90
2023-05-19T19:53:25.386Z,99.90
2023-05-19T19:56:11.507Z,99.90
2023-05-19T19:58:39.086Z,99.90
2023-05-19T20:01:08.939Z,99.90
2023-05-19T20:03:37.485Z,99.90
2023-05-19T20:06:05.034Z,99.90
2023-05-19T20:08:33.418Z,99.90
2023-05-19T20:11:01.385Z,99.90
2023-05-19T20:13:30.718Z,99.90
2023-05-19T20:15:59.664Z,99.90
2023-05-19T20:18:29.976Z,99.90
2023-05-19T20:20:57.690Z,99.90
2023-05-19T20:23:26.030Z,99.90
2023-05-19T20:26:10.084Z,99.90
2023-05-19T20:28:39.955Z,99.90
2023-05-19T20:31:07.898Z,99.90
2023-05-19T20:33:35.826Z,99.90
2023-05-19T20:36:04.896Z,99.90
2023-05-19T20:38:32.404Z,99.90
2023-05-19T20:40:59.897Z,99.90
2023-05-19T20:43:27.524Z,99.90
2023-05-19T20:45:55.120Z,99.90
2023-05-19T20:48:22.593Z,99.90
2023-05-19T20:50:50.640Z,99.90
2023-05-19T20:53:19.510Z,99.90
2023-05-19T20:55:47.189Z,99.90
2023-05-19T20:58:14.701Z,99.90
2023-05-19T21:00:42.186Z,99.90
2023-05-19T21:03:09.858Z,99.90
2023-05-19T21:05:37.379Z,99.90
2023-05-19T21:08:05.067Z,99.90
2023-05-19T21:10:32.534Z,99.90
2023-05-19T21:13:00.228Z,99.90
2023-05-19T21:15:27.622Z,99.90
2023-05-19T21:17:55.391Z,99.90
2023-05-19T21:20:22.932Z,99.90
2023-05-19T21:22:50.390Z,99.90
2023-05-19T21:25:17.883Z,99.90
2023-05-19T21:27:46.265Z,99.90
2023-05-19T21:30:14.466Z,99.90
2023-05-19T21:32:41.969Z,99.90
2023-05-19T21:35:09.603Z,99.90
2023-05-19T21:37:36.987Z,99.90
2023-05-19T21:40:04.621Z,99.90
2023-05-19T21:42:32.043Z,99.90
2023-05-19T21:45:01.996Z,99.90
2023-05-19T21:47:29.440Z,99.90
2023-05-19T21:49:56.875Z,99.90
2023-05-19T21:52:24.395Z,99.90
2023-05-19T21:54:52.040Z,99.90
2023-05-19T21:57:19.476Z,99.90
2023-05-19T21:59:47.040Z,99.90
2023-05-19T22:02:14.587Z,99.90
2023-05-19T22:04:42.952Z,99.90
2023-05-19T22:07:10.485Z,99.90
2023-05-19T22:09:38.058Z,99.90
2023-05-19T22:12:05.990Z,99.90
2023-05-19T22:14:33.397Z,99.90
2023-05-19T22:17:00.878Z,99.90
2023-05-19T22:19:28.379Z,99.90
2023-05-19T22:22:01.819Z,99.90
2023-05-19T22:24:33.339Z,99.90
2023-05-19T22:27:00.899Z,99.90
2023-05-19T22:29:28.318Z,99.90
2023-05-19T22:31:55.803Z,99.90
2023-05-19T22:34:23.424Z,99.90
2023-05-19T22:36:50.893Z,99.90
2023-05-19T22:39:18.391Z,99.90
2023-05-19T22:41:45.964Z,99.90
2023-05-19T22:44:16.256Z,99.90
2023-05-19T22:46:44.729Z,99.90
2023-05-19T22:49:12.170Z,99.90
2023-05-19T22:51:39.766Z,99.90
2023-05-19T22:54:07.740Z,99.90
2023-05-19T22:56:35.143Z,99.90
2023-05-19T22:59:02.522Z,99.90
2023-05-19T23:01:30.001Z,99.90
2023-05-19T23:03:57.574Z,99.90
2023-05-19T23:06:25.182Z,99.90
2023-05-19T23:09:00.321Z,99.90
2023-05-19T23:11:27.742Z,99.90
2023-05-19T23:13:55.233Z,99.90
2023-05-19T23:16:22.782Z,99.90
2023-05-19T23:18:50.346Z,99.90
2023-05-19T23:21:17.893Z,99.90
2023-05-19T23:23:45.400Z,99.90
2023-05-19T23:26:15.867Z,99.90
2023-05-19T23:28:43.843Z,99.90
2023-05-19T23:31:11.285Z,99.90
2023-05-19T23:33:38.932Z,99.90
2023-05-19T23:36:08.476Z,99.90
2023-05-19T23:38:36.472Z,99.90
2023-05-19T23:41:04.917Z,99.90
2023-05-19T23:43:32.553Z,99.90
2023-05-19T23:46:00.548Z,99.90
2023-05-19T23:48:31.460Z,99.90
2023-05-19T23:50:58.930Z,99.90
2023-05-19T23:53:26.558Z,99.90
2023-05-19T23:55:54.502Z,99.90
2023-05-19T23:58:23.487Z,99.90
